Quick Links (Output Below):   Max & Min Temps   /   Climate Reports   /   Zone Forecasts
River Forecasts   /   Forestry Forecasts   /   Aviation Forecasts   /   Radars   /   Features

Terminal Aerodrome Forecast (Fayetteville)

Pick a Site:
Arkadelphia | El Dorado | Fayetteville | Fort Smith | Harrison | Highfill | Hot Springs | Jonesboro
Little Rock | Monticello | Mountain Home | Pine Bluff | Texarkana
 Forecast 

KFYV 291120Z 2912/3012 14003KT P6SM SKC
     FM291700 15005KT P6SM SCT060
     FM300100 VRB03KT P6SM SCT100 SCT250=


 Latest METARs (Observations) 
How to Decode METARs
16Z KFYV 291553Z 22005KT 10SM CLR 28/19 A3011 RMK AO2 SLP182
         T02830194
         
15Z KFYV 291453Z 22004KT 10SM CLR 28/21 A3011 RMK AO2 SLP181 T02780206
         50007
         
14Z KFYV 291353Z 00000KT 10SM CLR 24/20 A3012 RMK AO2 SLP184
         T02390200
         
13Z KFYV 291253Z 16003KT 10SM CLR 19/18 A3010 RMK AO2 SLP180
         T01940183
         
12Z KFYV 291153Z 18004KT 10SM CLR 17/17 A3009 RMK AO2 SLP175 T01720172
         10194 20167 58000
         
11Z KFYV 291053Z 19004KT 10SM CLR 17/17 A3009 RMK AO2 SLP176
         T01670167
         
10Z KFYV 290953Z AUTO 00000KT 10SM CLR 17/17 A3010 RMK AO2 SLP178
         T01720172
         
09Z KFYV 290853Z AUTO 00000KT 10SM CLR 18/18 A3009 RMK AO2 SLP176
         T01780178 58004
         
08Z KFYV 290753Z AUTO 00000KT 10SM CLR 19/19 A3010 RMK AO2 SLP177
         T01890189
         
07Z KFYV 290653Z AUTO 17003KT 10SM CLR 19/19 A3011 RMK AO2 SLP180
         T01890189
         
***** Today's Observations (Above) *****


Back to Main Page
http://www.srh.noaa.gov/lzk/qfcst.php

USA.gov is the U.S. government's official web portal to all federal, state and local government web resources and services.